Time;durP1;ratioP1;P1;durP2;ratioP2;P2;SDS_P1;SDS_P2;PMS_P1;PMS_P2;Temp;Humidity;BMP_temperature;BMP_pressure;BME280_temperature;BME280_humidity;BME280_pressure;Samples;Min_cycle;Max_cycle;Signal;HPM_P1;HPM_P2
2024/04/21 00:00:24;;;;;;;7.13;1.90;;;7.50;99.90;;;;;;5309644;27;20001;-51
2024/04/21 00:02:49;;;;;;;3.83;1.88;;;7.50;99.90;;;;;;5308414;26;19997;-53
2024/04/21 00:05:15;;;;;;;3.35;1.80;;;7.50;99.90;;;;;;5308752;27;20012;-52
2024/04/21 00:07:40;;;;;;;4.35;1.67;;;7.40;99.90;;;;;;5310172;27;19998;-48
2024/04/21 00:10:06;;;;;;;1.55;1.45;;;7.40;99.90;;;;;;5308392;27;19997;-52
2024/04/21 00:12:32;;;;;;;4.18;2.53;;;7.30;99.90;;;;;;5308226;26;20002;-53
2024/04/21 00:14:58;;;;;;;1.70;1.50;;;7.20;99.90;;;;;;5310511;26;20645;-50
2024/04/21 00:17:23;;;;;;;1.83;1.60;;;7.30;99.90;;;;;;5308295;27;20465;-51
2024/04/21 00:19:49;;;;;;;4.65;1.73;;;7.30;99.90;;;;;;5310087;27;20045;-48
2024/04/21 00:22:14;;;;;;;2.30;1.85;;;7.30;99.90;;;;;;5309317;26;19997;-49
2024/04/21 00:24:40;;;;;;;2.13;1.30;;;7.30;99.90;;;;;;5308301;27;19998;-52
2024/04/21 00:27:05;;;;;;;1.10;1.10;;;7.20;99.90;;;;;;5310180;27;20725;-50
2024/04/21 00:29:31;;;;;;;1.98;1.88;;;7.20;99.90;;;;;;5309949;27;20001;-51
2024/04/21 00:31:56;;;;;;;1.20;1.20;;;7.20;99.90;;;;;;5307906;26;20105;-54
2024/04/21 00:34:22;;;;;;;1.70;1.60;;;7.20;99.90;;;;;;5310156;27;20356;-49
2024/04/21 00:36:47;;;;;;;1.95;1.27;;;7.20;99.90;;;;;;5310337;27;20076;-50
2024/04/21 00:39:13;;;;;;;1.30;1.30;;;7.20;99.90;;;;;;5308316;27;20005;-55
2024/04/21 00:41:38;;;;;;;1.33;1.33;;;7.20;99.90;;;;;;5307724;27;20456;-51
2024/04/21 00:44:04;;;;;;;1.42;1.42;;;7.10;99.90;;;;;;5309762;26;20009;-51
2024/04/21 00:46:30;;;;;;;1.52;1.45;;;7.10;99.90;;;;;;5308005;27;20531;-51
2024/04/21 00:48:56;;;;;;;1.45;1.35;;;7.20;99.90;;;;;;5309860;26;20012;-53
2024/04/21 00:51:22;;;;;;;1.42;1.30;;;7.10;99.90;;;;;;5310327;27;19997;-53
2024/04/21 00:53:50;;;;;;;1.00;1.00;;;7.10;99.90;;;;;;5311806;26;20008;-51
2024/04/21 00:56:19;;;;;;;1.20;1.20;;;7.10;99.90;;;;;;5310629;26;20549;-50
2024/04/21 00:58:44;;;;;;;2.90;1.23;;;7.00;99.90;;;;;;5310217;26;20001;-49
2024/04/21 01:01:10;;;;;;;1.38;1.27;;;7.00;99.90;;;;;;5309058;26;20024;-50
2024/04/21 01:03:36;;;;;;;1.48;1.38;;;7.00;99.90;;;;;;5307950;26;20006;-50
2024/04/21 01:06:02;;;;;;;1.17;1.10;;;7.00;99.90;;;;;;5309772;27;20117;-49
2024/04/21 01:08:28;;;;;;;2.15;1.90;;;7.00;99.90;;;;;;5309381;27;19998;-49
2024/04/21 01:10:54;;;;;;;0.98;0.98;;;6.90;99.90;;;;;;5309055;26;20362;-53
2024/04/21 01:13:19;;;;;;;1.75;0.98;;;6.80;99.90;;;;;;5307657;26;20077;-52
2024/04/21 01:15:50;;;;;;;0.90;0.90;;;6.80;99.90;;;;;;5307941;27;20057;-53
2024/04/21 01:18:15;;;;;;;0.90;0.90;;;6.70;99.90;;;;;;5307893;27;20468;-48
2024/04/21 01:20:41;;;;;;;1.27;0.80;;;6.80;99.90;;;;;;5308952;27;19997;-48
2024/04/21 01:23:07;;;;;;;1.42;1.00;;;6.80;99.90;;;;;;5309669;26;19998;-48
2024/04/21 01:25:32;;;;;;;0.98;0.93;;;6.80;99.90;;;;;;5309734;27;20006;-48
2024/04/21 01:27:58;;;;;;;0.85;0.85;;;6.90;99.90;;;;;;5307720;27;20001;-48
2024/04/21 01:30:23;;;;;;;0.90;0.90;;;6.80;99.90;;;;;;5307376;27;20010;-48
2024/04/21 01:32:49;;;;;;;0.70;0.70;;;6.90;99.90;;;;;;5309186;26;20009;-48
2024/04/21 01:35:14;;;;;;;2.90;0.80;;;6.80;99.90;;;;;;5312323;27;20052;-50
2024/04/21 01:37:40;;;;;;;1.13;1.02;;;6.80;99.90;;;;;;5312397;27;20352;-48
2024/04/21 01:40:06;;;;;;;0.90;0.90;;;6.90;99.90;;;;;;5313097;27;20002;-48
2024/04/21 01:42:31;;;;;;;1.17;1.13;;;6.90;99.90;;;;;;5312258;26;20008;-54
2024/04/21 01:44:57;;;;;;;1.25;1.15;;;6.90;99.90;;;;;;5312586;27;20006;-51
2024/04/21 01:47:22;;;;;;;1.90;1.10;;;6.80;99.90;;;;;;5313263;27;20449;-49
2024/04/21 01:49:48;;;;;;;0.90;0.90;;;6.70;99.90;;;;;;5313042;27;19997;-49
2024/04/21 01:52:14;;;;;;;1.08;0.98;;;6.70;99.90;;;;;;5311278;26;20449;-51
2024/04/21 01:54:40;;;;;;;1.90;0.90;;;6.70;99.90;;;;;;5312935;26;20008;-52
2024/04/21 01:57:05;;;;;;;1.15;0.82;;;6.70;99.90;;;;;;5310724;27;20012;-53
2024/04/21 01:59:31;;;;;;;6.40;1.27;;;6.70;99.90;;;;;;5312701;27;20408;-48
2024/04/21 02:01:56;;;;;;;0.65;0.65;;;6.70;99.90;;;;;;5310927;26;20008;-49
2024/04/21 02:04:22;;;;;;;1.90;0.70;;;6.70;99.90;;;;;;5310144;27;20072;-52
2024/04/21 02:06:48;;;;;;;1.75;0.73;;;6.70;99.90;;;;;;5311920;26;20009;-51
2024/04/21 02:09:14;;;;;;;2.95;0.90;;;6.70;99.90;;;;;;5310505;27;20002;-50
2024/04/21 02:11:39;;;;;;;0.75;0.70;;;6.70;99.90;;;;;;5309898;27;20346;-50
2024/04/21 02:14:05;;;;;;;1.02;0.80;;;6.70;99.90;;;;;;5311879;26;20002;-49
2024/04/21 02:16:30;;;;;;;3.15;0.85;;;6.70;99.90;;;;;;5310249;27;19998;-52
2024/04/21 02:18:56;;;;;;;0.80;0.80;;;6.70;99.90;;;;;;5312268;27;20075;-48
2024/04/21 02:21:21;;;;;;;1.25;0.77;;;6.70;99.90;;;;;;5311900;27;20535;-50
2024/04/21 02:23:47;;;;;;;2.78;1.20;;;6.60;99.90;;;;;;5311992;26;20013;-52
2024/04/21 02:26:13;;;;;;;2.83;1.02;;;6.60;99.90;;;;;;5310342;27;20383;-50
2024/04/21 02:28:38;;;;;;;5.13;1.40;;;6.60;99.90;;;;;;5312166;27;20013;-52
2024/04/21 02:31:04;;;;;;;7.13;1.70;;;6.50;99.90;;;;;;5311651;27;20075;-49
2024/04/21 02:33:29;;;;;;;5.28;1.38;;;6.60;99.90;;;;;;5310340;26;20017;-53
2024/04/21 02:35:55;;;;;;;3.22;1.35;;;6.60;99.90;;;;;;5310574;27;20017;-49
2024/04/21 02:38:20;;;;;;;3.83;1.38;;;6.50;99.90;;;;;;5314772;26;19998;-51
2024/04/21 02:40:46;;;;;;;7.97;1.85;;;6.50;99.90;;;;;;5314194;27;20002;-51
2024/04/21 02:43:11;;;;;;;4.07;1.38;;;6.50;99.90;;;;;;5310471;26;20079;-50
2024/04/21 02:45:37;;;;;;;4.07;2.33;;;6.60;99.90;;;;;;5309380;27;20025;-49
2024/04/21 02:48:03;;;;;;;7.97;1.90;;;6.60;99.90;;;;;;5312143;27;20009;-49
2024/04/21 02:50:28;;;;;;;5.80;1.77;;;6.60;99.90;;;;;;5311704;27;20001;-49
2024/04/21 02:52:54;;;;;;;10.27;2.33;;;6.70;99.90;;;;;;5309828;26;19998;-54
2024/04/21 02:55:20;;;;;;;4.20;1.73;;;6.70;99.90;;;;;;5311741;27;20008;-49
2024/04/21 02:57:46;;;;;;;5.93;1.92;;;6.60;99.90;;;;;;5309915;27;20345;-50
2024/04/21 03:00:12;;;;;;;7.80;2.03;;;6.60;99.90;;;;;;5311090;27;20075;-50
2024/04/21 03:02:37;;;;;;;4.43;1.42;;;6.70;99.90;;;;;;5310912;26;20001;-51
2024/04/21 03:05:03;;;;;;;9.25;2.13;;;6.50;99.90;;;;;;5311332;27;20397;-53
2024/04/21 03:07:29;;;;;;;9.00;1.80;;;6.50;99.90;;;;;;5311690;26;20557;-51
2024/04/21 03:09:54;;;;;;;7.82;2.28;;;6.50;99.90;;;;;;5309856;27;20013;-51
2024/04/21 03:12:20;;;;;;;7.63;1.58;;;6.50;99.90;;;;;;5309084;26;20052;-52
2024/04/21 03:14:45;;;;;;;8.25;1.70;;;6.50;99.90;;;;;;5309620;27;20005;-51
2024/04/21 03:17:11;;;;;;;3.38;1.50;;;6.50;99.90;;;;;;5311467;27;20012;-56
2024/04/21 03:19:36;;;;;;;6.68;1.77;;;6.50;99.90;;;;;;5311855;27;20561;-53
2024/04/21 03:22:02;;;;;;;5.07;1.85;;;6.40;99.90;;;;;;5310951;26;19997;-51
2024/04/21 03:24:28;;;;;;;9.00;1.70;;;6.50;99.90;;;;;;5311265;27;20034;-52
2024/04/21 03:26:54;;;;;;;8.30;1.42;;;6.30;99.90;;;;;;5311536;27;20365;-52
2024/04/21 03:29:19;;;;;;;12.93;2.60;;;6.40;99.90;;;;;;5309686;27;20068;-49
2024/04/21 03:31:45;;;;;;;10.88;2.17;;;6.30;99.90;;;;;;5310740;27;20013;-53
2024/04/21 03:34:11;;;;;;;5.18;2.00;;;6.20;99.90;;;;;;5309251;26;19994;-51
2024/04/21 03:36:36;;;;;;;11.23;2.17;;;6.10;99.90;;;;;;5311109;27;20449;-50
2024/04/21 03:39:02;;;;;;;5.03;1.40;;;6.00;99.90;;;;;;5309238;27;20449;-54
2024/04/21 03:41:28;;;;;;;9.40;1.90;;;6.00;99.90;;;;;;5310599;27;20010;-51
2024/04/21 03:43:55;;;;;;;7.15;2.15;;;5.90;99.90;;;;;;5311051;26;19997;-55
2024/04/21 03:46:20;;;;;;;8.82;2.58;;;5.90;99.90;;;;;;5310931;26;20072;-53
2024/04/21 03:48:47;;;;;;;5.90;1.73;;;5.80;99.90;;;;;;5309052;27;20005;-51
2024/04/21 03:51:12;;;;;;;8.57;2.75;;;5.80;99.90;;;;;;5310371;26;20449;-50
2024/04/21 03:53:38;;;;;;;9.55;1.90;;;5.80;99.90;;;;;;5308803;26;20072;-51
2024/04/21 03:56:04;;;;;;;9.50;1.77;;;5.60;99.90;;;;;;5309785;27;20016;-56
2024/04/21 03:58:29;;;;;;;16.38;1.92;;;5.60;99.90;;;;;;5310947;26;20366;-56
2024/04/21 04:00:55;;;;;;;6.63;1.85;;;5.60;99.90;;;;;;5310076;27;20009;-55
2024/04/21 04:03:20;;;;;;;6.88;1.73;;;5.50;99.90;;;;;;5308916;26;20404;-56
2024/04/21 04:05:46;;;;;;;10.07;2.33;;;5.50;99.90;;;;;;5308828;27;20001;-58
2024/04/21 04:08:15;;;;;;;10.68;2.88;;;5.60;99.90;;;;;;5308867;27;19997;-57
2024/04/21 04:10:42;;;;;;;7.95;1.70;;;5.60;99.90;;;;;;5310091;27;20001;-54
2024/04/21 04:13:08;;;;;;;11.32;2.10;;;5.60;99.90;;;;;;5308924;26;20002;-57
2024/04/21 04:15:33;;;;;;;19.23;2.15;;;5.70;99.90;;;;;;5310643;27;20009;-58
2024/04/21 04:17:59;;;;;;;5.57;2.50;;;5.60;99.90;;;;;;5308868;27;20034;-55
2024/04/21 04:20:25;;;;;;;3.58;2.05;;;5.60;99.90;;;;;;5310432;27;20002;-57
2024/04/21 04:22:51;;;;;;;11.73;2.65;;;5.60;99.90;;;;;;5310305;26;20013;-58
2024/04/21 04:25:16;;;;;;;8.75;2.15;;;5.70;99.90;;;;;;5310652;27;20016;-52
2024/04/21 04:27:42;;;;;;;10.68;1.90;;;5.60;99.90;;;;;;5310394;27;19997;-55
2024/04/21 04:30:08;;;;;;;11.55;3.05;;;5.60;99.90;;;;;;5308563;27;20012;-53
2024/04/21 04:32:34;;;;;;;4.85;1.88;;;5.60;99.90;;;;;;5310061;26;20001;-55
2024/04/21 04:34:59;;;;;;;10.90;1.98;;;5.60;99.90;;;;;;5308567;27;20017;-56
2024/04/21 04:37:25;;;;;;;8.68;2.38;;;5.60;99.90;;;;;;5310224;27;19997;-55
2024/04/21 04:39:50;;;;;;;14.30;3.08;;;5.50;99.90;;;;;;5308734;27;20008;-56
2024/04/21 04:42:16;;;;;;;12.82;1.98;;;5.60;99.90;;;;;;5307865;26;20037;-54
2024/04/21 04:44:41;;;;;;;14.07;2.00;;;5.50;99.90;;;;;;5310684;27;20010;-53
2024/04/21 04:47:07;;;;;;;6.68;2.25;;;5.60;99.90;;;;;;5309914;27;20009;-53
2024/04/21 04:49:32;;;;;;;10.65;2.42;;;5.70;99.90;;;;;;5310089;27;20016;-50
2024/04/21 04:51:58;;;;;;;12.80;2.42;;;5.70;99.90;;;;;;5309527;26;19998;-51
2024/04/21 04:54:24;;;;;;;10.60;2.22;;;5.80;99.90;;;;;;5307941;27;19998;-54
2024/04/21 04:56:53;;;;;;;11.15;1.85;;;5.80;99.90;;;;;;5308180;26;20011;-49
2024/04/21 04:59:18;;;;;;;8.82;2.33;;;5.90;99.90;;;;;;5308360;27;20454;-51
2024/04/21 05:01:44;;;;;;;7.15;2.00;;;6.00;99.90;;;;;;5336055;26;20009;-55
2024/04/21 05:04:09;;;;;;;8.63;2.03;;;6.00;99.90;;;;;;5309599;26;19998;-53
2024/04/21 05:06:36;;;;;;;9.70;1.98;;;6.10;99.90;;;;;;5309869;27;19997;-49
2024/04/21 05:09:01;;;;;;;18.50;3.63;;;6.10;99.90;;;;;;5312735;26;20001;-50
2024/04/21 05:11:27;;;;;;;8.00;1.92;;;6.10;99.90;;;;;;5312488;26;20418;-49
2024/04/21 05:13:53;;;;;;;5.18;2.40;;;6.20;99.90;;;;;;5312490;26;20026;-54
2024/04/21 05:16:18;;;;;;;3.28;1.23;;;6.50;99.90;;;;;;5312564;27;20461;-50
2024/04/21 05:18:43;;;;;;;6.00;2.53;;;6.80;99.90;;;;;;5312851;27;19998;-51
2024/04/21 05:21:09;;;;;;;8.85;2.65;;;6.90;99.90;;;;;;5312516;27;20013;-51
2024/04/21 05:23:36;;;;;;;16.25;2.50;;;7.00;99.90;;;;;;5312613;26;20071;-53
2024/04/21 05:26:02;;;;;;;5.68;2.00;;;7.00;99.90;;;;;;5312580;26;20020;-52
2024/04/21 05:28:27;;;;;;;13.13;2.47;;;7.30;99.90;;;;;;5312711;26;20453;-52
2024/04/21 05:30:53;;;;;;;6.10;1.77;;;7.30;99.90;;;;;;5312250;27;20426;-56
2024/04/21 05:33:18;;;;;;;8.88;2.80;;;7.60;99.90;;;;;;5312614;26;20009;-53
2024/04/21 05:35:44;;;;;;;12.60;2.25;;;7.90;99.90;;;;;;5312490;27;20001;-54
2024/04/21 05:38:09;;;;;;;11.45;2.55;;;8.10;99.90;;;;;;5312428;27;20017;-54
2024/04/21 05:40:35;;;;;;;9.90;3.20;;;8.30;99.90;;;;;;5312174;27;20008;-53
2024/04/21 05:43:01;;;;;;;10.23;1.88;;;8.40;99.90;;;;;;5312215;26;20075;-53
2024/04/21 05:45:26;;;;;;;7.97;2.05;;;8.50;99.90;;;;;;5312237;27;20353;-54
2024/04/21 05:47:52;;;;;;;10.00;2.25;;;8.90;99.90;;;;;;5312803;27;20017;-53
2024/04/21 05:50:17;;;;;;;7.40;1.80;;;9.10;99.90;;;;;;5312262;27;20364;-48
2024/04/21 05:52:43;;;;;;;8.52;2.50;;;9.20;99.90;;;;;;5311497;26;20001;-50
2024/04/21 05:55:08;;;;;;;7.75;2.30;;;9.20;99.90;;;;;;5312299;27;20357;-51
2024/04/21 05:57:34;;;;;;;11.05;2.47;;;9.00;99.90;;;;;;5312459;26;20002;-54
2024/04/21 05:59:59;;;;;;;8.10;3.92;;;8.90;99.90;;;;;;5311704;27;20435;-51
2024/04/21 06:02:25;;;;;;;6.35;1.98;;;8.70;99.90;;;;;;5312057;26;20115;-54
2024/04/21 06:04:50;;;;;;;5.60;1.98;;;8.80;99.90;;;;;;5314612;27;20002;-55
2024/04/21 06:07:16;;;;;;;8.68;2.38;;;8.90;99.90;;;;;;5314422;27;20121;-49
2024/04/21 06:09:41;;;;;;;6.82;2.13;;;8.70;99.90;;;;;;5312222;27;19998;-52
2024/04/21 06:12:07;;;;;;;6.85;1.80;;;9.10;99.90;;;;;;5311336;26;20006;-54
2024/04/21 06:14:33;;;;;;;8.30;2.25;;;9.30;99.90;;;;;;5310132;27;20411;-50
2024/04/21 06:16:59;;;;;;;3.30;1.75;;;8.70;99.90;;;;;;5312455;26;20068;-49
2024/04/21 06:19:24;;;;;;;10.60;2.20;;;8.30;99.90;;;;;;5311458;27;20009;-54
2024/04/21 06:21:50;;;;;;;8.05;2.20;;;8.10;99.90;;;;;;5309786;27;20417;-49
2024/04/21 06:24:15;;;;;;;8.10;2.40;;;8.40;99.90;;;;;;5312278;26;20009;-51
2024/04/21 06:26:41;;;;;;;10.75;2.70;;;8.30;99.90;;;;;;5312041;27;19997;-54
2024/04/21 06:29:07;;;;;;;9.20;2.92;;;8.50;99.90;;;;;;5310462;27;20006;-58
2024/04/21 06:31:32;;;;;;;8.10;3.05;;;8.60;99.90;;;;;;5311629;26;20006;-51
2024/04/21 06:33:58;;;;;;;10.27;2.58;;;8.80;99.90;;;;;;5311900;26;19998;-53
2024/04/21 06:36:23;;;;;;;8.32;2.97;;;8.80;99.90;;;;;;5310326;27;20412;-54
2024/04/21 06:38:49;;;;;;;6.53;2.38;;;10.20;99.90;;;;;;5312044;27;20001;-53
2024/04/21 06:41:15;;;;;;;5.30;2.33;;;10.70;99.90;;;;;;5311703;27;20072;-53
2024/04/21 06:43:40;;;;;;;9.57;2.10;;;10.70;99.90;;;;;;5309728;26;19998;-51
2024/04/21 06:46:06;;;;;;;3.22;1.67;;;10.80;99.90;;;;;;5311756;27;20010;-53
2024/04/21 06:48:31;;;;;;;4.88;1.63;;;11.00;99.10;;;;;;5311693;27;20002;-54
2024/04/21 06:50:57;;;;;;;6.72;1.58;;;10.50;99.70;;;;;;5311470;27;19994;-50
2024/04/21 06:53:22;;;;;;;10.15;2.00;;;11.40;97.60;;;;;;5311268;26;20025;-52
2024/04/21 06:55:48;;;;;;;4.60;1.60;;;11.50;98.20;;;;;;5309992;27;20057;-51
2024/04/21 06:58:14;;;;;;;6.10;1.92;;;8.70;99.90;;;;;;5311077;27;20002;-52
2024/04/21 07:00:40;;;;;;;5.93;1.73;;;8.60;99.90;;;;;;5310801;26;19997;-52
2024/04/21 07:03:06;;;;;;;7.53;1.83;;;8.60;99.90;;;;;;5311494;26;20001;-53
2024/04/21 07:05:31;;;;;;;7.78;1.92;;;8.70;99.90;;;;;;5311772;26;20346;-52
2024/04/21 07:07:57;;;;;;;9.15;3.55;;;8.70;99.90;;;;;;5309723;27;20072;-52
2024/04/21 07:10:23;;;;;;;6.85;2.15;;;8.90;99.90;;;;;;5311623;27;20075;-45
2024/04/21 07:12:49;;;;;;;7.05;1.75;;;9.40;99.90;;;;;;5310871;26;20005;-52
2024/04/21 07:15:14;;;;;;;2.65;1.02;;;10.90;99.70;;;;;;5309672;27;20016;-51
2024/04/21 07:17:40;;;;;;;4.55;1.55;;;11.00;99.20;;;;;;5309415;27;20052;-51
2024/04/21 07:20:06;;;;;;;3.17;1.42;;;11.50;98.40;;;;;;5311230;27;20038;-50
2024/04/21 07:22:31;;;;;;;6.70;1.48;;;11.80;97.90;;;;;;5310724;26;20484;-52
2024/04/21 07:24:57;;;;;;;3.08;1.33;;;11.30;98.40;;;;;;5311496;27;20439;-54
2024/04/21 07:27:22;;;;;;;9.02;1.63;;;10.90;98.60;;;;;;5311282;27;20001;-52
2024/04/21 07:29:48;;;;;;;4.35;1.13;;;10.20;99.40;;;;;;5311039;27;20341;-52
2024/04/21 07:32:13;;;;;;;6.47;2.42;;;9.80;99.50;;;;;;5309408;26;19998;-55
2024/04/21 07:34:39;;;;;;;7.38;1.77;;;9.30;99.90;;;;;;5308987;27;20075;-53
2024/04/21 07:37:04;;;;;;;7.00;1.55;;;8.70;99.90;;;;;;5310794;27;20449;-54
2024/04/21 07:39:30;;;;;;;7.53;1.85;;;8.30;99.90;;;;;;5310922;27;20017;-49
2024/04/21 07:41:55;;;;;;;10.95;2.25;;;8.10;99.90;;;;;;5310489;26;20001;-49
2024/04/21 07:44:21;;;;;;;5.05;1.80;;;8.20;99.90;;;;;;5312588;27;20379;-54
2024/04/21 07:46:47;;;;;;;8.05;1.52;;;8.30;99.90;;;;;;5310760;27;20017;-52
2024/04/21 07:49:13;;;;;;;4.05;1.30;;;7.90;99.90;;;;;;5312885;26;20009;-50
2024/04/21 07:51:38;;;;;;;9.98;1.88;;;7.90;99.90;;;;;;5310388;27;20001;-49
2024/04/21 07:54:04;;;;;;;8.27;1.48;;;7.60;99.90;;;;;;5310868;26;20002;-49
2024/04/21 07:56:29;;;;;;;7.65;1.40;;;7.60;99.90;;;;;;5310775;27;20332;-52
2024/04/21 07:58:55;;;;;;;4.15;1.38;;;7.70;99.90;;;;;;5308999;27;20345;-49
2024/04/21 08:01:20;;;;;;;6.82;2.90;;;7.50;99.90;;;;;;5308380;27;20005;-53
2024/04/21 08:03:46;;;;;;;3.50;1.58;;;7.40;99.90;;;;;;5310716;26;20013;-53
2024/04/21 08:06:11;;;;;;;4.47;1.55;;;7.10;99.90;;;;;;5310206;27;20005;-49
2024/04/21 08:08:37;;;;;;;5.75;1.60;;;6.80;99.90;;;;;;5310511;27;20008;-49
2024/04/21 08:11:03;;;;;;;3.90;1.50;;;6.90;99.90;;;;;;5310094;26;20030;-53
2024/04/21 08:13:29;;;;;;;6.82;1.58;;;6.90;99.90;;;;;;5311773;26;19998;-50
2024/04/21 08:15:57;;;;;;;5.22;1.65;;;7.00;99.90;;;;;;5309492;27;20005;-55
2024/04/21 08:18:23;;;;;;;6.47;2.45;;;7.00;99.90;;;;;;5310741;26;20029;-55
2024/04/21 08:20:48;;;;;;;4.78;1.70;;;7.10;99.90;;;;;;5308571;27;20001;-51
2024/04/21 08:23:16;;;;;;;5.82;1.58;;;7.10;99.90;;;;;;5308523;26;20013;-52
2024/04/21 08:25:41;;;;;;;7.13;1.58;;;6.80;99.90;;;;;;5324271;26;20005;-52
2024/04/21 08:28:07;;;;;;;6.30;2.00;;;6.70;99.90;;;;;;5344603;26;20008;-58
2024/04/21 08:30:32;;;;;;;3.40;1.83;;;6.60;99.90;;;;;;5344600;26;20555;-54
2024/04/21 08:32:58;;;;;;;2.92;1.60;;;6.50;99.90;;;;;;5344086;26;20001;-52
2024/04/21 08:35:23;;;;;;;6.25;1.60;;;6.20;99.90;;;;;;5344753;26;20011;-54
2024/04/21 08:37:49;;;;;;;6.85;2.78;;;6.00;99.90;;;;;;5343658;26;20067;-53
2024/04/21 08:40:14;;;;;;;7.90;1.40;;;5.90;99.90;;;;;;5342385;26;20470;-49
2024/04/21 08:42:41;;;;;;;7.47;2.95;;;5.90;99.90;;;;;;5339570;26;20012;-56
2024/04/21 08:45:08;;;;;;;6.25;2.17;;;5.80;99.90;;;;;;5315848;26;20345;-48
2024/04/21 08:47:34;;;;;;;7.57;1.88;;;5.90;99.90;;;;;;5308841;27;19998;-49
2024/04/21 08:50:02;;;;;;;6.22;3.20;;;6.00;99.90;;;;;;5307052;27;20087;-49
2024/04/21 08:52:32;;;;;;;4.75;1.70;;;6.20;99.90;;;;;;5307949;26;20010;-48
2024/04/21 08:54:59;;;;;;;6.60;2.50;;;6.30;99.90;;;;;;5306478;26;19998;-57
2024/04/21 08:57:28;;;;;;;8.43;2.00;;;6.40;99.90;;;;;;5296476;27;20011;-51
2024/04/21 09:00:01;;;;;;;10.35;2.70;;;6.30;99.90;;;;;;5285912;27;20081;-51
2024/04/21 09:02:28;;;;;;;10.02;2.05;;;6.30;99.90;;;;;;5311385;26;20012;-57
2024/04/21 09:04:55;;;;;;;4.82;1.55;;;6.40;99.90;;;;;;5312080;26;20026;-54
2024/04/21 09:07:27;;;;;;;7.40;2.03;;;6.50;99.90;;;;;;5312066;26;20005;-52
2024/04/21 09:09:53;;;;;;;3.95;1.70;;;6.60;99.90;;;;;;5312274;26;19997;-50
2024/04/21 09:12:19;;;;;;;7.65;1.67;;;6.50;99.90;;;;;;5310419;27;19997;-48
2024/04/21 09:14:45;;;;;;;4.05;1.80;;;6.30;99.90;;;;;;5313018;26;20001;-50
2024/04/21 09:17:11;;;;;;;1.40;1.30;;;6.20;99.90;;;;;;5327081;26;20702;-45
2024/04/21 09:19:36;;;;;;;3.10;1.50;;;6.30;99.90;;;;;;5309578;26;20011;-50
2024/04/21 09:22:02;;;;;;;2.15;1.50;;;6.50;99.90;;;;;;5306965;27;20002;-50
2024/04/21 09:24:28;;;;;;;3.70;1.20;;;6.60;99.90;;;;;;5309776;26;20075;-49
2024/04/21 09:26:53;;;;;;;5.18;1.65;;;6.70;99.90;;;;;;5309463;27;20360;-53
2024/04/21 09:29:19;;;;;;;5.78;1.33;;;6.60;99.90;;;;;;5307939;27;20408;-49
2024/04/21 09:31:45;;;;;;;1.13;1.13;;;6.30;99.90;;;;;;5309673;26;20012;-53
2024/04/21 09:34:11;;;;;;;2.90;1.50;;;6.30;99.90;;;;;;5309333;26;20006;-53
2024/04/21 09:36:38;;;;;;;1.45;1.10;;;6.40;99.90;;;;;;5309967;26;20002;-48
2024/04/21 09:39:05;;;;;;;3.75;1.83;;;6.30;99.90;;;;;;5308998;26;20001;-48
2024/04/21 09:41:32;;;;;;;1.00;1.00;;;6.10;99.90;;;;;;5306932;27;20081;-50
2024/04/21 09:43:58;;;;;;;4.57;1.83;;;6.10;99.90;;;;;;5309162;26;20009;-49
2024/04/21 09:46:25;;;;;;;1.48;1.23;;;6.20;99.90;;;;;;5308165;27;20138;-49
2024/04/21 09:48:50;;;;;;;1.40;1.20;;;5.90;99.90;;;;;;5310325;26;20024;-49
2024/04/21 09:51:17;;;;;;;2.10;1.73;;;5.70;99.90;;;;;;5310734;26;20005;-48
2024/04/21 09:53:47;;;;;;;3.38;1.23;;;5.50;99.90;;;;;;5309697;26;20008;-53
2024/04/21 09:56:19;;;;;;;1.70;1.60;;;5.40;99.90;;;;;;5312728;26;20002;-49
2024/04/21 09:58:49;;;;;;;3.90;1.65;;;5.40;99.90;;;;;;5295869;27;20079;-49
2024/04/21 10:01:40;;;;;;;2.65;1.30;;;5.50;99.90;;;;;;5312454;26;20002;-50
2024/04/21 10:04:15;;;;;;;5.30;3.47;;;5.20;99.90;;;;;;5307530;26;20002;-54
2024/04/21 10:06:44;;;;;;;21.98;13.18;;;5.20;99.90;;;;;;5309005;27;20005;-54
2024/04/21 10:09:13;;;;;;;3.05;1.50;;;5.00;99.90;;;;;;5311830;26;20017;-57
2024/04/21 10:11:39;;;;;;;1.33;1.30;;;5.00;99.90;;;;;;5312398;26;20023;-56
2024/04/21 10:14:05;;;;;;;2.03;1.23;;;;;;;;;;5310720;27;20010;-49
2024/04/21 10:16:31;;;;;;;1.27;1.27;;;4.70;99.90;;;;;;5309975;27;20530;-50
2024/04/21 10:19:03;;;;;;;5.47;1.52;;;4.50;99.90;;;;;;5326005;26;20001;-49
2024/04/21 10:21:29;;;;;;;1.65;1.55;;;4.50;99.90;;;;;;5325684;26;20150;-53
2024/04/21 10:23:55;;;;;;;1.48;1.38;;;4.30;99.90;;;;;;5294253;27;20029;-48
2024/04/21 10:26:21;;;;;;;1.52;1.42;;;4.10;99.90;;;;;;5303535;27;20016;-48
2024/04/21 10:28:46;;;;;;;1.90;1.70;;;4.70;99.90;;;;;;5307196;26;20014;-46
2024/04/21 10:31:12;;;;;;;2.20;2.10;;;4.20;99.90;;;;;;5311033;27;20006;-52
2024/04/21 10:33:39;;;;;;;2.03;1.92;;;4.20;99.90;;;;;;5291821;27;20019;-52
2024/04/21 10:36:04;;;;;;;3.92;2.42;;;4.20;99.90;;;;;;5310997;27;20006;-54
2024/04/21 10:38:30;;;;;;;2.90;2.70;;;4.10;99.90;;;;;;5308292;26;20023;-50
2024/04/21 10:40:57;;;;;;;2.60;2.40;;;4.20;99.90;;;;;;5310966;26;20002;-54
2024/04/21 10:43:25;;;;;;;2.75;2.50;;;4.20;99.90;;;;;;5311595;26;20080;-51
2024/04/21 10:45:54;;;;;;;3.50;3.20;;;4.10;99.90;;;;;;5312252;26;19998;-54
2024/04/21 10:48:22;;;;;;;3.47;3.17;;;4.10;99.90;;;;;;5308185;27;20012;-49
2024/04/21 10:50:49;;;;;;;5.80;3.15;;;4.30;99.90;;;;;;5302469;27;20002;-48
2024/04/21 10:53:14;;;;;;;3.17;2.88;;;4.30;99.90;;;;;;5310317;26;19998;-56
2024/04/21 10:55:41;;;;;;;4.22;3.83;;;4.30;99.90;;;;;;5312320;26;20002;-51
2024/04/21 10:58:08;;;;;;;5.13;3.45;;;4.40;99.90;;;;;;5311811;26;20002;-49
2024/04/21 11:00:37;;;;;;;6.03;3.55;;;4.50;99.90;;;;;;5280863;27;20002;-53
2024/04/21 11:03:06;;;;;;;5.68;4.00;;;4.50;99.90;;;;;;5304845;26;19998;-53
2024/04/21 11:06:00;;;;;;;5.55;4.32;;;4.50;99.90;;;;;;5316279;26;20016;-51
2024/04/21 11:08:27;;;;;;;9.48;4.65;;;4.60;99.90;;;;;;5313625;26;20006;-50
2024/04/21 11:10:53;;;;;;;4.72;4.03;;;4.70;99.90;;;;;;5312705;26;20354;-47
2024/04/21 11:13:18;;;;;;;4.28;3.80;;;4.80;99.90;;;;;;5348308;21;20051;-54
2024/04/21 11:15:44;;;;;;;4.60;4.03;;;4.90;99.90;;;;;;5369456;26;20011;-55
2024/04/21 11:18:13;;;;;;;5.55;4.28;;;5.00;99.90;;;;;;5385883;26;20039;-58
2024/04/21 11:20:39;;;;;;;6.28;4.50;;;5.10;99.90;;;;;;5372145;26;21722;-55
2024/04/21 11:23:04;;;;;;;4.53;3.97;;;5.30;99.90;;;;;;5387389;26;20000;-60
2024/04/21 11:25:30;;;;;;;5.53;4.50;;;5.30;99.90;;;;;;5397858;26;20006;-58
2024/04/21 11:27:55;;;;;;;5.55;4.57;;;5.50;99.90;;;;;;5382100;26;19996;-56
2024/04/21 11:30:23;;;;;;;5.97;4.88;;;5.70;99.90;;;;;;5347225;26;20085;-52
2024/04/21 11:32:49;;;;;;;6.35;4.47;;;5.90;99.90;;;;;;5351076;26;19995;-52
2024/04/21 11:35:15;;;;;;;5.88;4.45;;;6.20;99.90;;;;;;5389372;26;20007;-56
2024/04/21 11:37:40;;;;;;;3.47;3.17;;;6.30;99.90;;;;;;5360467;26;20006;-59
2024/04/21 11:40:07;;;;;;;5.28;4.22;;;6.50;99.90;;;;;;5368277;26;20014;-58
2024/04/21 11:42:33;;;;;;;4.32;3.95;;;;;;;;;;5357874;26;20108;-54
2024/04/21 11:44:59;;;;;;;11.18;5.75;;;;;;;;;;5343436;26;20000;-53
2024/04/21 11:47:25;;;;;;;9.60;5.55;;;6.80;99.90;;;;;;5382031;26;20095;-52
2024/04/21 11:49:51;;;;;;;6.05;4.85;;;;;;;;;;5381140;26;20115;-52
2024/04/21 11:52:16;;;;;;;4.35;3.95;;;7.00;99.90;;;;;;5359022;26;20396;-58
2024/04/21 11:54:42;;;;;;;4.85;4.32;;;7.10;99.90;;;;;;5394769;26;19995;-62
2024/04/21 11:57:07;;;;;;;5.25;4.57;;;7.10;99.90;;;;;;5358454;26;19999;-57
2024/04/21 11:59:33;;;;;;;5.63;4.47;;;7.10;99.90;;;;;;5380302;26;20067;-54
2024/04/21 12:01:58;;;;;;;5.38;3.65;;;7.10;99.90;;;;;;5392281;26;20660;-56
2024/04/21 12:04:24;;;;;;;6.80;5.07;;;7.30;99.90;;;;;;5383919;26;20076;-60
2024/04/21 12:06:49;;;;;;;4.65;3.92;;;7.40;99.90;;;;;;5391852;26;20007;-58
2024/04/21 12:09:15;;;;;;;5.90;4.05;;;7.40;99.90;;;;;;5389826;26;20081;-57
2024/04/21 12:11:41;;;;;;;4.85;3.75;;;7.30;99.90;;;;;;5378119;26;19996;-63
2024/04/21 12:14:34;;;;;;;6.10;4.35;;;7.50;99.90;;;;;;5343375;26;20070;-51
2024/04/21 12:16:59;;;;;;;6.18;3.55;;;7.70;99.90;;;;;;5384344;26;20018;-58
2024/04/21 12:19:27;;;;;;;3.53;3.22;;;7.70;99.90;;;;;;5382763;26;20015;-55
2024/04/21 12:21:53;;;;;;;2.60;2.40;;;7.80;99.90;;;;;;5389655;26;20008;-53
2024/04/21 12:24:18;;;;;;;3.15;2.55;;;7.90;99.90;;;;;;5377436;26;20400;-56
2024/04/21 12:26:44;;;;;;;3.05;2.85;;;8.10;99.90;;;;;;5391616;26;20491;-50
2024/04/21 12:29:09;;;;;;;3.28;2.97;;;8.10;99.90;;;;;;5402152;26;20000;-53
2024/04/21 12:31:35;;;;;;;5.10;2.80;;;8.00;99.90;;;;;;5352101;26;20463;-54
2024/04/21 12:34:00;;;;;;;2.90;2.70;;;7.90;99.90;;;;;;5379427;26;20012;-54
2024/04/21 12:36:25;;;;;;;3.03;2.53;;;7.90;99.90;;;;;;5383621;26;20365;-51
2024/04/21 12:38:51;;;;;;;3.38;3.08;;;7.90;99.90;;;;;;5385410;26;19995;-51
2024/04/21 12:41:17;;;;;;;3.13;2.88;;;7.90;99.90;;;;;;5381143;26;20101;-50
2024/04/21 12:43:42;;;;;;;3.33;3.03;;;7.90;99.90;;;;;;5389718;26;20003;-55
2024/04/21 12:46:07;;;;;;;3.13;2.75;;;7.80;99.90;;;;;;5387374;26;20018;-52
2024/04/21 12:48:33;;;;;;;4.35;3.67;;;7.80;99.90;;;;;;5384509;26;20005;-53